sensor_id;sensor_type;location;lat;lon;timestamp;P1;durP1;ratioP1;P2;durP2;ratioP2
52043;SDS011;38053;53.100;6.078;2022-09-09T00:09:28;16.35;;;10.30;;
52043;SDS011;38053;53.100;6.078;2022-09-09T00:12:04;19.92;;;11.95;;
52043;SDS011;38053;53.100;6.078;2022-09-09T00:14:54;14.23;;;9.63;;
52043;SDS011;38053;53.100;6.078;2022-09-09T00:20:20;20.83;;;12.10;;
52043;SDS011;38053;53.100;6.078;2022-09-09T00:23:08;19.02;;;10.88;;
52043;SDS011;38053;53.100;6.078;2022-09-09T00:28:13;21.58;;;10.13;;
52043;SDS011;38053;53.100;6.078;2022-09-09T00:30:48;20.35;;;10.73;;
52043;SDS011;38053;53.100;6.078;2022-09-09T00:33:20;18.50;;;11.32;;
52043;SDS011;38053;53.100;6.078;2022-09-09T00:35:53;19.88;;;10.35;;
52043;SDS011;38053;53.100;6.078;2022-09-09T00:38:38;14.52;;;10.48;;
52043;SDS011;38053;53.100;6.078;2022-09-09T00:50:05;13.13;;;9.70;;
52043;SDS011;38053;53.100;6.078;2022-09-09T00:58:48;15.40;;;9.90;;
52043;SDS011;38053;53.100;6.078;2022-09-09T01:01:37;13.10;;;9.73;;
52043;SDS011;38053;53.100;6.078;2022-09-09T01:04:22;16.60;;;10.30;;
52043;SDS011;38053;53.100;6.078;2022-09-09T01:07:14;17.83;;;9.63;;
52043;SDS011;38053;53.100;6.078;2022-09-09T01:09:58;14.43;;;9.88;;
52043;SDS011;38053;53.100;6.078;2022-09-09T01:15:14;15.50;;;9.93;;
52043;SDS011;38053;53.100;6.078;2022-09-09T01:18:04;16.30;;;9.73;;
52043;SDS011;38053;53.100;6.078;2022-09-09T01:26:39;15.60;;;9.00;;
52043;SDS011;38053;53.100;6.078;2022-09-09T01:29:21;13.02;;;7.85;;
52043;SDS011;38053;53.100;6.078;2022-09-09T01:32:00;12.27;;;8.70;;
52043;SDS011;38053;53.100;6.078;2022-09-09T01:34:57;14.18;;;8.20;;
52043;SDS011;38053;53.100;6.078;2022-09-09T01:37:36;17.08;;;7.85;;
52043;SDS011;38053;53.100;6.078;2022-09-09T01:40:08;13.00;;;7.80;;
52043;SDS011;38053;53.100;6.078;2022-09-09T01:42:41;14.38;;;8.35;;
52043;SDS011;38053;53.100;6.078;2022-09-09T01:45:10;16.20;;;7.45;;
52043;SDS011;38053;53.100;6.078;2022-09-09T01:47:43;15.60;;;8.23;;
52043;SDS011;38053;53.100;6.078;2022-09-09T01:50:22;23.83;;;9.27;;
52043;SDS011;38053;53.100;6.078;2022-09-09T01:52:54;11.95;;;7.75;;
52043;SDS011;38053;53.100;6.078;2022-09-09T01:55:31;14.88;;;8.68;;
52043;SDS011;38053;53.100;6.078;2022-09-09T02:04:18;13.50;;;8.77;;
52043;SDS011;38053;53.100;6.078;2022-09-09T02:10:51;16.95;;;8.45;;
52043;SDS011;38053;53.100;6.078;2022-09-09T02:13:18;17.83;;;9.10;;
52043;SDS011;38053;53.100;6.078;2022-09-09T02:18:27;18.50;;;8.68;;
52043;SDS011;38053;53.100;6.078;2022-09-09T02:21:09;13.02;;;8.23;;
52043;SDS011;38053;53.100;6.078;2022-09-09T02:23:53;15.63;;;9.77;;
52043;SDS011;38053;53.100;6.078;2022-09-09T02:26:24;14.43;;;9.18;;
52043;SDS011;38053;53.100;6.078;2022-09-09T02:28:56;18.75;;;9.60;;
52043;SDS011;38053;53.100;6.078;2022-09-09T02:31:33;15.55;;;9.00;;
52043;SDS011;38053;53.100;6.078;2022-09-09T02:34:14;16.85;;;9.35;;
52043;SDS011;38053;53.100;6.078;2022-09-09T02:36:53;15.10;;;9.70;;
52043;SDS011;38053;53.100;6.078;2022-09-09T02:39:45;19.85;;;10.27;;
52043;SDS011;38053;53.100;6.078;2022-09-09T02:42:23;14.65;;;10.13;;
52043;SDS011;38053;53.100;6.078;2022-09-09T02:44:49;14.45;;;10.15;;
52043;SDS011;38053;53.100;6.078;2022-09-09T02:47:17;14.23;;;10.07;;
52043;SDS011;38053;53.100;6.078;2022-09-09T02:53:20;20.02;;;9.88;;
52043;SDS011;38053;53.100;6.078;2022-09-09T02:55:59;13.05;;;9.73;;
52043;SDS011;38053;53.100;6.078;2022-09-09T02:59:03;20.17;;;10.75;;
52043;SDS011;38053;53.100;6.078;2022-09-09T03:01:41;22.02;;;10.70;;
52043;SDS011;38053;53.100;6.078;2022-09-09T03:09:37;19.52;;;11.82;;
52043;SDS011;38053;53.100;6.078;2022-09-09T03:12:06;18.77;;;11.02;;
52043;SDS011;38053;53.100;6.078;2022-09-09T03:14:38;16.23;;;11.75;;
52043;SDS011;38053;53.100;6.078;2022-09-09T03:17:13;23.05;;;13.38;;
52043;SDS011;38053;53.100;6.078;2022-09-09T03:19:51;20.98;;;10.75;;
52043;SDS011;38053;53.100;6.078;2022-09-09T03:22:25;17.55;;;11.40;;
52043;SDS011;38053;53.100;6.078;2022-09-09T03:24:53;17.20;;;11.52;;
52043;SDS011;38053;53.100;6.078;2022-09-09T03:27:30;26.17;;;10.63;;
52043;SDS011;38053;53.100;6.078;2022-09-09T03:30:05;14.50;;;11.07;;
52043;SDS011;38053;53.100;6.078;2022-09-09T03:32:36;19.10;;;10.95;;
52043;SDS011;38053;53.100;6.078;2022-09-09T03:35:10;22.90;;;12.63;;
52043;SDS011;38053;53.100;6.078;2022-09-09T03:37:58;18.45;;;11.20;;
52043;SDS011;38053;53.100;6.078;2022-09-09T03:40:30;17.50;;;11.75;;
52043;SDS011;38053;53.100;6.078;2022-09-09T03:42:59;17.17;;;12.23;;
52043;SDS011;38053;53.100;6.078;2022-09-09T03:45:33;21.25;;;12.82;;
52043;SDS011;38053;53.100;6.078;2022-09-09T03:48:05;18.77;;;11.15;;
52043;SDS011;38053;53.100;6.078;2022-09-09T03:50:43;22.27;;;13.48;;
52043;SDS011;38053;53.100;6.078;2022-09-09T03:53:20;19.45;;;12.73;;
52043;SDS011;38053;53.100;6.078;2022-09-09T03:55:59;16.35;;;12.35;;
52043;SDS011;38053;53.100;6.078;2022-09-09T03:58:35;14.80;;;12.27;;
52043;SDS011;38053;53.100;6.078;2022-09-09T04:01:08;18.50;;;13.07;;
52043;SDS011;38053;53.100;6.078;2022-09-09T04:03:41;15.82;;;12.05;;
52043;SDS011;38053;53.100;6.078;2022-09-09T04:06:10;17.58;;;12.77;;
52043;SDS011;38053;53.100;6.078;2022-09-09T04:09:02;21.42;;;12.77;;
52043;SDS011;38053;53.100;6.078;2022-09-09T04:11:33;20.67;;;12.43;;
52043;SDS011;38053;53.100;6.078;2022-09-09T04:14:20;19.38;;;12.85;;
52043;SDS011;38053;53.100;6.078;2022-09-09T04:16:53;23.65;;;12.93;;
52043;SDS011;38053;53.100;6.078;2022-09-09T04:19:26;18.88;;;12.93;;
52043;SDS011;38053;53.100;6.078;2022-09-09T04:21:59;28.90;;;14.40;;
52043;SDS011;38053;53.100;6.078;2022-09-09T04:24:44;19.83;;;12.07;;
52043;SDS011;38053;53.100;6.078;2022-09-09T04:27:10;19.25;;;11.75;;
52043;SDS011;38053;53.100;6.078;2022-09-09T04:30:02;18.83;;;11.93;;
52043;SDS011;38053;53.100;6.078;2022-09-09T04:32:40;20.95;;;11.88;;
52043;SDS011;38053;53.100;6.078;2022-09-09T04:35:26;22.23;;;11.73;;
52043;SDS011;38053;53.100;6.078;2022-09-09T04:38:16;15.85;;;11.88;;
52043;SDS011;38053;53.100;6.078;2022-09-09T04:41:18;20.13;;;11.57;;
52043;SDS011;38053;53.100;6.078;2022-09-09T04:44:00;18.42;;;12.13;;
52043;SDS011;38053;53.100;6.078;2022-09-09T04:46:37;19.42;;;12.15;;
52043;SDS011;38053;53.100;6.078;2022-09-09T04:49:15;16.25;;;11.63;;
52043;SDS011;38053;53.100;6.078;2022-09-09T04:51:41;19.98;;;12.07;;
52043;SDS011;38053;53.100;6.078;2022-09-09T04:54:23;22.05;;;12.85;;
52043;SDS011;38053;53.100;6.078;2022-09-09T04:56:53;20.65;;;12.93;;
52043;SDS011;38053;53.100;6.078;2022-09-09T05:02:08;19.30;;;13.38;;
52043;SDS011;38053;53.100;6.078;2022-09-09T05:07:02;18.75;;;12.80;;
52043;SDS011;38053;53.100;6.078;2022-09-09T05:09:30;18.35;;;12.63;;
52043;SDS011;38053;53.100;6.078;2022-09-09T05:12:03;28.73;;;15.30;;
52043;SDS011;38053;53.100;6.078;2022-09-09T05:14:32;21.80;;;14.05;;
52043;SDS011;38053;53.100;6.078;2022-09-09T05:17:12;27.70;;;15.95;;
52043;SDS011;38053;53.100;6.078;2022-09-09T05:19:51;20.33;;;13.65;;
52043;SDS011;38053;53.100;6.078;2022-09-09T05:24:55;22.13;;;14.45;;
52043;SDS011;38053;53.100;6.078;2022-09-09T05:27:48;24.02;;;15.65;;
52043;SDS011;38053;53.100;6.078;2022-09-09T05:30:17;22.75;;;14.85;;
52043;SDS011;38053;53.100;6.078;2022-09-09T05:32:47;26.75;;;16.63;;
52043;SDS011;38053;53.100;6.078;2022-09-09T05:35:14;24.45;;;14.70;;
52043;SDS011;38053;53.100;6.078;2022-09-09T05:37:45;23.08;;;14.50;;
52043;SDS011;38053;53.100;6.078;2022-09-09T05:42:59;22.45;;;14.82;;
52043;SDS011;38053;53.100;6.078;2022-09-09T05:45:31;23.00;;;15.15;;
52043;SDS011;38053;53.100;6.078;2022-09-09T05:48:02;23.05;;;15.45;;
52043;SDS011;38053;53.100;6.078;2022-09-09T05:50:28;18.27;;;13.80;;
52043;SDS011;38053;53.100;6.078;2022-09-09T05:53:05;24.23;;;15.05;;
52043;SDS011;38053;53.100;6.078;2022-09-09T05:55:36;22.95;;;14.40;;
52043;SDS011;38053;53.100;6.078;2022-09-09T05:58:02;22.88;;;13.15;;
52043;SDS011;38053;53.100;6.078;2022-09-09T06:00:29;18.80;;;12.73;;
52043;SDS011;38053;53.100;6.078;2022-09-09T06:03:00;19.02;;;13.13;;
52043;SDS011;38053;53.100;6.078;2022-09-09T06:05:37;25.10;;;12.63;;
52043;SDS011;38053;53.100;6.078;2022-09-09T06:08:06;17.30;;;11.60;;
52043;SDS011;38053;53.100;6.078;2022-09-09T06:10:41;18.38;;;11.85;;
52043;SDS011;38053;53.100;6.078;2022-09-09T06:13:22;20.65;;;12.32;;
52043;SDS011;38053;53.100;6.078;2022-09-09T06:16:10;15.88;;;12.07;;
52043;SDS011;38053;53.100;6.078;2022-09-09T06:19:02;18.10;;;12.27;;
52043;SDS011;38053;53.100;6.078;2022-09-09T06:21:45;17.13;;;12.90;;
52043;SDS011;38053;53.100;6.078;2022-09-09T06:24:12;24.10;;;13.48;;
52043;SDS011;38053;53.100;6.078;2022-09-09T06:26:42;20.45;;;12.75;;
52043;SDS011;38053;53.100;6.078;2022-09-09T06:29:09;16.73;;;12.88;;
52043;SDS011;38053;53.100;6.078;2022-09-09T06:31:38;17.58;;;12.02;;
52043;SDS011;38053;53.100;6.078;2022-09-09T06:34:04;20.25;;;12.98;;
52043;SDS011;38053;53.100;6.078;2022-09-09T06:36:32;19.50;;;13.30;;
52043;SDS011;38053;53.100;6.078;2022-09-09T06:38:59;17.67;;;12.70;;
52043;SDS011;38053;53.100;6.078;2022-09-09T06:41:29;19.63;;;12.73;;
52043;SDS011;38053;53.100;6.078;2022-09-09T06:43:55;15.57;;;12.07;;
52043;SDS011;38053;53.100;6.078;2022-09-09T06:46:23;19.23;;;12.50;;
52043;SDS011;38053;53.100;6.078;2022-09-09T06:51:21;19.10;;;12.50;;
52043;SDS011;38053;53.100;6.078;2022-09-09T06:53:50;18.90;;;11.55;;
52043;SDS011;38053;53.100;6.078;2022-09-09T06:58:43;15.40;;;11.52;;
52043;SDS011;38053;53.100;6.078;2022-09-09T07:01:14;19.77;;;12.20;;
52043;SDS011;38053;53.100;6.078;2022-09-09T07:03:41;16.08;;;10.60;;
52043;SDS011;38053;53.100;6.078;2022-09-09T07:06:21;17.13;;;10.52;;
52043;SDS011;38053;53.100;6.078;2022-09-09T07:08:57;15.90;;;10.27;;
52043;SDS011;38053;53.100;6.078;2022-09-09T07:11:31;14.88;;;9.50;;
52043;SDS011;38053;53.100;6.078;2022-09-09T07:14:07;16.70;;;10.35;;
52043;SDS011;38053;53.100;6.078;2022-09-09T07:16:43;16.02;;;9.82;;
52043;SDS011;38053;53.100;6.078;2022-09-09T07:19:10;16.08;;;9.95;;
52043;SDS011;38053;53.100;6.078;2022-09-09T07:21:40;16.70;;;10.32;;
52043;SDS011;38053;53.100;6.078;2022-09-09T07:24:06;13.98;;;8.52;;
52043;SDS011;38053;53.100;6.078;2022-09-09T07:26:35;16.88;;;9.35;;
52043;SDS011;38053;53.100;6.078;2022-09-09T07:29:01;16.85;;;8.60;;
52043;SDS011;38053;53.100;6.078;2022-09-09T07:31:28;13.32;;;9.93;;
52043;SDS011;38053;53.100;6.078;2022-09-09T07:33:56;13.60;;;7.75;;
52043;SDS011;38053;53.100;6.078;2022-09-09T07:36:23;13.25;;;9.40;;
52043;SDS011;38053;53.100;6.078;2022-09-09T07:38:58;16.92;;;8.23;;
52043;SDS011;38053;53.100;6.078;2022-09-09T07:41:36;16.15;;;8.30;;
52043;SDS011;38053;53.100;6.078;2022-09-09T07:44:16;12.00;;;7.95;;
52043;SDS011;38053;53.100;6.078;2022-09-09T07:46:43;13.13;;;8.38;;
52043;SDS011;38053;53.100;6.078;2022-09-09T07:49:10;12.68;;;8.13;;
52043;SDS011;38053;53.100;6.078;2022-09-09T07:51:41;15.57;;;8.60;;
52043;SDS011;38053;53.100;6.078;2022-09-09T07:54:10;11.50;;;7.70;;
52043;SDS011;38053;53.100;6.078;2022-09-09T07:56:37;12.48;;;8.13;;
52043;SDS011;38053;53.100;6.078;2022-09-09T07:59:04;18.63;;;7.05;;
52043;SDS011;38053;53.100;6.078;2022-09-09T08:01:35;12.80;;;7.25;;
52043;SDS011;38053;53.100;6.078;2022-09-09T08:04:07;12.95;;;7.68;;
52043;SDS011;38053;53.100;6.078;2022-09-09T08:06:35;11.40;;;7.72;;
52043;SDS011;38053;53.100;6.078;2022-09-09T08:09:02;12.82;;;6.35;;
52043;SDS011;38053;53.100;6.078;2022-09-09T08:11:29;12.90;;;7.10;;
52043;SDS011;38053;53.100;6.078;2022-09-09T08:13:55;10.27;;;6.80;;
52043;SDS011;38053;53.100;6.078;2022-09-09T08:16:22;10.43;;;6.70;;
52043;SDS011;38053;53.100;6.078;2022-09-09T08:18:50;9.18;;;6.80;;
52043;SDS011;38053;53.100;6.078;2022-09-09T08:21:18;13.13;;;7.03;;
52043;SDS011;38053;53.100;6.078;2022-09-09T08:23:46;12.57;;;7.13;;
52043;SDS011;38053;53.100;6.078;2022-09-09T08:26:17;13.98;;;7.70;;
52043;SDS011;38053;53.100;6.078;2022-09-09T08:28:46;13.20;;;5.88;;
52043;SDS011;38053;53.100;6.078;2022-09-09T08:31:14;15.63;;;6.72;;
52043;SDS011;38053;53.100;6.078;2022-09-09T08:33:41;10.88;;;6.35;;
52043;SDS011;38053;53.100;6.078;2022-09-09T08:36:11;14.65;;;6.93;;
52043;SDS011;38053;53.100;6.078;2022-09-09T08:38:39;14.65;;;7.80;;
52043;SDS011;38053;53.100;6.078;2022-09-09T08:43:39;10.50;;;6.90;;
52043;SDS011;38053;53.100;6.078;2022-09-09T08:46:12;11.75;;;6.25;;
52043;SDS011;38053;53.100;6.078;2022-09-09T08:48:56;13.50;;;6.53;;
52043;SDS011;38053;53.100;6.078;2022-09-09T08:51:31;16.58;;;7.07;;
52043;SDS011;38053;53.100;6.078;2022-09-09T08:53:58;9.20;;;5.78;;
52043;SDS011;38053;53.100;6.078;2022-09-09T08:56:27;12.57;;;6.25;;
52043;SDS011;38053;53.100;6.078;2022-09-09T08:58:54;13.50;;;5.35;;
52043;SDS011;38053;53.100;6.078;2022-09-09T09:12:24;11.13;;;4.63;;
52043;SDS011;38053;53.100;6.078;2022-09-09T09:14:51;13.13;;;5.05;;
52043;SDS011;38053;53.100;6.078;2022-09-09T09:19:46;12.55;;;4.03;;
52043;SDS011;38053;53.100;6.078;2022-09-09T09:22:20;10.45;;;4.13;;
52043;SDS011;38053;53.100;6.078;2022-09-09T09:25:40;9.43;;;3.90;;
52043;SDS011;38053;53.100;6.078;2022-09-09T09:28:00;12.57;;;4.07;;
52043;SDS011;38053;53.100;6.078;2022-09-09T09:30:29;9.85;;;3.53;;
52043;SDS011;38053;53.100;6.078;2022-09-09T09:35:28;9.45;;;3.55;;
52043;SDS011;38053;53.100;6.078;2022-09-09T09:37:54;11.23;;;4.93;;
52043;SDS011;38053;53.100;6.078;2022-09-09T09:40:21;9.32;;;3.58;;
52043;SDS011;38053;53.100;6.078;2022-09-09T09:42:57;11.15;;;3.50;;
52043;SDS011;38053;53.100;6.078;2022-09-09T09:45:27;10.90;;;5.05;;
52043;SDS011;38053;53.100;6.078;2022-09-09T09:47:57;10.18;;;3.22;;
52043;SDS011;38053;53.100;6.078;2022-09-09T09:50:24;16.35;;;3.42;;
52043;SDS011;38053;53.100;6.078;2022-09-09T09:52:54;10.82;;;3.72;;
52043;SDS011;38053;53.100;6.078;2022-09-09T09:55:22;10.02;;;3.10;;
52043;SDS011;38053;53.100;6.078;2022-09-09T09:57:49;13.52;;;2.92;;
52043;SDS011;38053;53.100;6.078;2022-09-09T10:00:16;5.80;;;2.60;;
52043;SDS011;38053;53.100;6.078;2022-09-09T10:02:44;8.57;;;2.40;;
52043;SDS011;38053;53.100;6.078;2022-09-09T10:07:42;15.63;;;2.88;;
52043;SDS011;38053;53.100;6.078;2022-09-09T10:13:26;10.73;;;3.00;;
52043;SDS011;38053;53.100;6.078;2022-09-09T10:16:19;8.38;;;2.92;;
52043;SDS011;38053;53.100;6.078;2022-09-09T10:19:06;8.90;;;3.30;;
52043;SDS011;38053;53.100;6.078;2022-09-09T10:33:18;7.35;;;2.50;;
52043;SDS011;38053;53.100;6.078;2022-09-09T10:41:24;9.65;;;2.60;;
52043;SDS011;38053;53.100;6.078;2022-09-09T10:44:14;9.43;;;2.38;;
52043;SDS011;38053;53.100;6.078;2022-09-09T10:52:18;6.40;;;2.05;;
52043;SDS011;38053;53.100;6.078;2022-09-09T10:55:19;8.68;;;2.78;;
52043;SDS011;38053;53.100;6.078;2022-09-09T10:57:49;7.55;;;2.20;;
52043;SDS011;38053;53.100;6.078;2022-09-09T11:00:19;7.50;;;1.63;;
52043;SDS011;38053;53.100;6.078;2022-09-09T11:02:57;8.32;;;1.75;;
52043;SDS011;38053;53.100;6.078;2022-09-09T11:08:09;7.72;;;1.88;;
52043;SDS011;38053;53.100;6.078;2022-09-09T11:13:20;9.50;;;2.33;;
52043;SDS011;38053;53.100;6.078;2022-09-09T11:16:19;9.55;;;2.58;;
52043;SDS011;38053;53.100;6.078;2022-09-09T11:21:59;12.80;;;2.35;;
52043;SDS011;38053;53.100;6.078;2022-09-09T11:24:41;6.15;;;1.90;;
52043;SDS011;38053;53.100;6.078;2022-09-09T11:27:39;6.93;;;1.67;;
52043;SDS011;38053;53.100;6.078;2022-09-09T11:38:51;11.77;;;3.13;;
52043;SDS011;38053;53.100;6.078;2022-09-09T11:41:32;6.47;;;1.88;;
52043;SDS011;38053;53.100;6.078;2022-09-09T11:44:09;13.27;;;3.00;;
52043;SDS011;38053;53.100;6.078;2022-09-09T11:46:51;8.63;;;1.90;;
52043;SDS011;38053;53.100;6.078;2022-09-09T11:54:50;13.77;;;2.70;;
52043;SDS011;38053;53.100;6.078;2022-09-09T11:57:20;11.68;;;2.67;;
52043;SDS011;38053;53.100;6.078;2022-09-09T11:59:57;8.75;;;2.00;;
52043;SDS011;38053;53.100;6.078;2022-09-09T12:02:25;8.68;;;2.28;;
52043;SDS011;38053;53.100;6.078;2022-09-09T12:04:57;5.55;;;1.80;;
52043;SDS011;38053;53.100;6.078;2022-09-09T12:10:19;11.95;;;2.47;;
52043;SDS011;38053;53.100;6.078;2022-09-09T12:12:52;10.35;;;1.92;;
52043;SDS011;38053;53.100;6.078;2022-09-09T12:15:22;11.38;;;3.10;;
52043;SDS011;38053;53.100;6.078;2022-09-09T12:17:54;11.95;;;2.10;;
52043;SDS011;38053;53.100;6.078;2022-09-09T12:20:38;7.75;;;2.67;;
52043;SDS011;38053;53.100;6.078;2022-09-09T12:29:43;7.20;;;2.00;;
52043;SDS011;38053;53.100;6.078;2022-09-09T12:31:51;7.93;;;2.20;;
52043;SDS011;38053;53.100;6.078;2022-09-09T12:40:21;10.07;;;2.83;;
52043;SDS011;38053;53.100;6.078;2022-09-09T12:42:51;11.90;;;3.30;;
52043;SDS011;38053;53.100;6.078;2022-09-09T12:45:18;8.32;;;1.85;;
52043;SDS011;38053;53.100;6.078;2022-09-09T12:47:51;7.95;;;1.98;;
52043;SDS011;38053;53.100;6.078;2022-09-09T12:50:35;10.48;;;2.63;;
52043;SDS011;38053;53.100;6.078;2022-09-09T12:53:04;10.20;;;2.72;;
52043;SDS011;38053;53.100;6.078;2022-09-09T12:55:36;13.93;;;2.58;;
52043;SDS011;38053;53.100;6.078;2022-09-09T12:58:03;6.07;;;2.40;;
52043;SDS011;38053;53.100;6.078;2022-09-09T13:00:31;10.15;;;2.28;;
52043;SDS011;38053;53.100;6.078;2022-09-09T13:02:59;8.32;;;2.03;;
52043;SDS011;38053;53.100;6.078;2022-09-09T13:05:36;8.57;;;1.55;;
52043;SDS011;38053;53.100;6.078;2022-09-09T13:08:04;8.05;;;1.88;;
52043;SDS011;38053;53.100;6.078;2022-09-09T13:10:39;6.32;;;1.65;;
52043;SDS011;38053;53.100;6.078;2022-09-09T13:13:17;6.45;;;1.63;;
52043;SDS011;38053;53.100;6.078;2022-09-09T13:15:50;13.27;;;3.85;;
52043;SDS011;38053;53.100;6.078;2022-09-09T13:18:19;7.47;;;2.42;;
52043;SDS011;38053;53.100;6.078;2022-09-09T13:20:48;6.25;;;2.10;;
52043;SDS011;38053;53.100;6.078;2022-09-09T13:23:16;11.90;;;2.95;;
52043;SDS011;38053;53.100;6.078;2022-09-09T13:25:59;7.65;;;2.45;;
52043;SDS011;38053;53.100;6.078;2022-09-09T13:28:48;5.47;;;2.80;;
52043;SDS011;38053;53.100;6.078;2022-09-09T13:31:22;6.68;;;2.85;;
52043;SDS011;38053;53.100;6.078;2022-09-09T13:33:55;7.28;;;2.75;;
52043;SDS011;38053;53.100;6.078;2022-09-09T13:36:30;8.15;;;2.17;;
52043;SDS011;38053;53.100;6.078;2022-09-09T13:38:59;10.43;;;2.88;;
52043;SDS011;38053;53.100;6.078;2022-09-09T13:41:32;9.55;;;2.80;;
52043;SDS011;38053;53.100;6.078;2022-09-09T13:44:00;14.43;;;3.17;;
52043;SDS011;38053;53.100;6.078;2022-09-09T13:49:01;8.70;;;3.17;;
52043;SDS011;38053;53.100;6.078;2022-09-09T13:51:47;9.70;;;3.38;;
52043;SDS011;38053;53.100;6.078;2022-09-09T13:54:15;6.47;;;2.10;;
52043;SDS011;38053;53.100;6.078;2022-09-09T13:56:43;8.55;;;1.92;;
52043;SDS011;38053;53.100;6.078;2022-09-09T13:59:11;8.27;;;2.00;;
52043;SDS011;38053;53.100;6.078;2022-09-09T14:01:38;3.58;;;1.05;;
52043;SDS011;38053;53.100;6.078;2022-09-09T14:04:04;4.90;;;1.38;;
52043;SDS011;38053;53.100;6.078;2022-09-09T14:06:31;6.88;;;2.10;;
52043;SDS011;38053;53.100;6.078;2022-09-09T14:08:58;11.70;;;1.52;;
52043;SDS011;38053;53.100;6.078;2022-09-09T14:11:24;4.65;;;1.33;;
52043;SDS011;38053;53.100;6.078;2022-09-09T14:13:50;7.70;;;1.63;;
52043;SDS011;38053;53.100;6.078;2022-09-09T14:16:16;5.72;;;1.65;;
52043;SDS011;38053;53.100;6.078;2022-09-09T14:18:42;8.77;;;2.53;;
52043;SDS011;38053;53.100;6.078;2022-09-09T14:21:09;4.15;;;1.50;;
52043;SDS011;38053;53.100;6.078;2022-09-09T14:23:36;3.92;;;1.23;;
52043;SDS011;38053;53.100;6.078;2022-09-09T14:26:03;5.57;;;1.98;;
52043;SDS011;38053;53.100;6.078;2022-09-09T14:28:32;5.63;;;2.10;;
52043;SDS011;38053;53.100;6.078;2022-09-09T14:30:59;5.88;;;1.77;;
52043;SDS011;38053;53.100;6.078;2022-09-09T14:33:26;6.43;;;1.48;;
52043;SDS011;38053;53.100;6.078;2022-09-09T14:35:58;6.25;;;1.85;;
52043;SDS011;38053;53.100;6.078;2022-09-09T14:38:25;4.25;;;0.98;;
52043;SDS011;38053;53.100;6.078;2022-09-09T14:40:54;4.57;;;1.42;;
52043;SDS011;38053;53.100;6.078;2022-09-09T14:43:19;7.35;;;1.88;;
52043;SDS011;38053;53.100;6.078;2022-09-09T14:45:45;4.70;;;1.25;;
52043;SDS011;38053;53.100;6.078;2022-09-09T14:48:13;7.80;;;2.03;;
52043;SDS011;38053;53.100;6.078;2022-09-09T14:50:40;5.50;;;2.45;;
52043;SDS011;38053;53.100;6.078;2022-09-09T14:53:06;8.73;;;2.10;;
52043;SDS011;38053;53.100;6.078;2022-09-09T14:55:33;7.38;;;1.80;;
52043;SDS011;38053;53.100;6.078;2022-09-09T14:57:59;14.90;;;2.33;;
52043;SDS011;38053;53.100;6.078;2022-09-09T15:00:25;10.65;;;2.45;;
52043;SDS011;38053;53.100;6.078;2022-09-09T15:02:54;6.25;;;1.77;;
52043;SDS011;38053;53.100;6.078;2022-09-09T15:05:20;7.25;;;2.08;;
52043;SDS011;38053;53.100;6.078;2022-09-09T15:07:46;5.10;;;2.13;;
52043;SDS011;38053;53.100;6.078;2022-09-09T15:10:15;8.07;;;1.55;;
52043;SDS011;38053;53.100;6.078;2022-09-09T15:12:42;5.97;;;1.65;;
52043;SDS011;38053;53.100;6.078;2022-09-09T15:15:09;5.78;;;2.22;;
52043;SDS011;38053;53.100;6.078;2022-09-09T15:17:35;5.57;;;1.60;;
52043;SDS011;38053;53.100;6.078;2022-09-09T15:20:02;5.93;;;1.98;;
52043;SDS011;38053;53.100;6.078;2022-09-09T15:22:28;7.00;;;2.08;;
52043;SDS011;38053;53.100;6.078;2022-09-09T15:24:54;8.13;;;2.22;;
52043;SDS011;38053;53.100;6.078;2022-09-09T15:27:19;5.13;;;1.92;;
52043;SDS011;38053;53.100;6.078;2022-09-09T15:29:45;7.93;;;2.40;;
52043;SDS011;38053;53.100;6.078;2022-09-09T15:32:11;6.82;;;2.38;;
52043;SDS011;38053;53.100;6.078;2022-09-09T15:34:37;5.72;;;2.20;;
52043;SDS011;38053;53.100;6.078;2022-09-09T15:37:03;4.93;;;2.15;;
52043;SDS011;38053;53.100;6.078;2022-09-09T15:39:28;5.07;;;2.10;;
52043;SDS011;38053;53.100;6.078;2022-09-09T15:41:54;11.23;;;2.60;;
52043;SDS011;38053;53.100;6.078;2022-09-09T15:44:20;6.25;;;2.20;;
52043;SDS011;38053;53.100;6.078;2022-09-09T15:46:51;6.13;;;2.70;;
52043;SDS011;38053;53.100;6.078;2022-09-09T15:49:21;6.00;;;2.35;;
52043;SDS011;38053;53.100;6.078;2022-09-09T15:51:51;7.10;;;2.60;;
52043;SDS011;38053;53.100;6.078;2022-09-09T15:54:18;6.07;;;2.67;;
52043;SDS011;38053;53.100;6.078;2022-09-09T15:56:47;6.57;;;2.55;;
52043;SDS011;38053;53.100;6.078;2022-09-09T15:59:21;8.75;;;2.78;;
52043;SDS011;38053;53.100;6.078;2022-09-09T16:01:47;7.07;;;2.20;;
52043;SDS011;38053;53.100;6.078;2022-09-09T16:04:16;5.00;;;2.10;;
52043;SDS011;38053;53.100;6.078;2022-09-09T16:06:48;7.63;;;2.92;;
52043;SDS011;38053;53.100;6.078;2022-09-09T16:09:15;6.75;;;1.80;;
52043;SDS011;38053;53.100;6.078;2022-09-09T16:11:41;6.43;;;2.00;;
52043;SDS011;38053;53.100;6.078;2022-09-09T16:14:07;5.72;;;2.17;;
52043;SDS011;38053;53.100;6.078;2022-09-09T16:16:33;10.13;;;2.53;;
52043;SDS011;38053;53.100;6.078;2022-09-09T16:19:02;6.35;;;1.95;;
52043;SDS011;38053;53.100;6.078;2022-09-09T16:21:34;6.03;;;2.38;;
52043;SDS011;38053;53.100;6.078;2022-09-09T16:24:02;5.20;;;2.25;;
52043;SDS011;38053;53.100;6.078;2022-09-09T16:26:33;4.43;;;2.50;;
52043;SDS011;38053;53.100;6.078;2022-09-09T16:29:01;6.03;;;2.45;;
52043;SDS011;38053;53.100;6.078;2022-09-09T16:31:28;5.80;;;2.58;;
52043;SDS011;38053;53.100;6.078;2022-09-09T16:33:55;8.57;;;2.80;;
52043;SDS011;38053;53.100;6.078;2022-09-09T16:36:21;7.07;;;2.53;;
52043;SDS011;38053;53.100;6.078;2022-09-09T16:38:52;9.88;;;3.28;;
52043;SDS011;38053;53.100;6.078;2022-09-09T16:41:22;8.73;;;3.10;;
52043;SDS011;38053;53.100;6.078;2022-09-09T16:43:53;7.43;;;3.05;;
52043;SDS011;38053;53.100;6.078;2022-09-09T16:46:20;8.25;;;2.25;;
52043;SDS011;38053;53.100;6.078;2022-09-09T16:48:50;7.32;;;2.45;;
52043;SDS011;38053;53.100;6.078;2022-09-09T16:51:17;8.55;;;3.08;;
52043;SDS011;38053;53.100;6.078;2022-09-09T16:53:43;6.05;;;2.50;;
52043;SDS011;38053;53.100;6.078;2022-09-09T16:56:10;5.85;;;2.55;;
52043;SDS011;38053;53.100;6.078;2022-09-09T16:58:41;9.95;;;2.67;;
52043;SDS011;38053;53.100;6.078;2022-09-09T17:01:10;8.50;;;2.58;;
52043;SDS011;38053;53.100;6.078;2022-09-09T17:03:39;7.32;;;2.67;;
52043;SDS011;38053;53.100;6.078;2022-09-09T17:06:11;9.52;;;2.70;;
52043;SDS011;38053;53.100;6.078;2022-09-09T17:08:38;9.40;;;3.13;;
52043;SDS011;38053;53.100;6.078;2022-09-09T17:11:13;12.15;;;3.00;;
52043;SDS011;38053;53.100;6.078;2022-09-09T17:13:46;5.50;;;2.35;;
52043;SDS011;38053;53.100;6.078;2022-09-09T17:16:14;9.87;;;3.10;;
52043;SDS011;38053;53.100;6.078;2022-09-09T17:18:40;9.02;;;2.45;;
52043;SDS011;38053;53.100;6.078;2022-09-09T17:21:07;5.32;;;2.38;;
52043;SDS011;38053;53.100;6.078;2022-09-09T17:23:36;8.40;;;2.83;;
52043;SDS011;38053;53.100;6.078;2022-09-09T17:26:05;6.40;;;3.28;;
52043;SDS011;38053;53.100;6.078;2022-09-09T17:28:35;7.93;;;3.13;;
52043;SDS011;38053;53.100;6.078;2022-09-09T17:31:04;11.95;;;3.35;;
52043;SDS011;38053;53.100;6.078;2022-09-09T17:33:35;8.25;;;2.85;;
52043;SDS011;38053;53.100;6.078;2022-09-09T17:36:09;8.85;;;2.85;;
52043;SDS011;38053;53.100;6.078;2022-09-09T17:38:58;12.27;;;2.92;;
52043;SDS011;38053;53.100;6.078;2022-09-09T17:41:28;9.52;;;2.90;;
52043;SDS011;38053;53.100;6.078;2022-09-09T17:43:56;8.82;;;3.78;;
52043;SDS011;38053;53.100;6.078;2022-09-09T17:46:27;8.70;;;3.40;;
52043;SDS011;38053;53.100;6.078;2022-09-09T17:48:55;6.07;;;2.72;;